sensor_id;sensor_type;location;lat;lon;timestamp;pressure;altitude;pressure_sealevel;temperature;humidity
38939;BME280;24211;49.980;19.776;2023-10-19T00:00:42;98788.63;;;4.13;100.00
38939;BME280;24211;49.980;19.776;2023-10-19T00:03:32;98779.50;;;4.16;100.00
38939;BME280;24211;49.980;19.776;2023-10-19T00:06:00;98776.22;;;4.14;100.00
38939;BME280;24211;49.980;19.776;2023-10-19T00:08:28;98775.00;;;4.10;100.00
38939;BME280;24211;49.980;19.776;2023-10-19T00:11:03;98771.75;;;4.08;100.00
38939;BME280;24211;49.980;19.776;2023-10-19T00:13:39;98767.47;;;4.07;100.00
38939;BME280;24211;49.980;19.776;2023-10-19T00:16:08;98772.13;;;4.05;100.00
38939;BME280;24211;49.980;19.776;2023-10-19T00:18:44;98770.09;;;4.00;100.00
38939;BME280;24211;49.980;19.776;2023-10-19T00:21:12;98776.56;;;3.97;100.00
38939;BME280;24211;49.980;19.776;2023-10-19T00:23:56;98778.59;;;3.95;100.00
38939;BME280;24211;49.980;19.776;2023-10-19T00:26:32;98773.31;;;3.95;100.00
38939;BME280;24211;49.980;19.776;2023-10-19T00:29:00;98770.84;;;3.94;100.00
38939;BME280;24211;49.980;19.776;2023-10-19T00:31:45;98764.13;;;3.91;100.00
38939;BME280;24211;49.980;19.776;2023-10-19T00:34:13;98769.19;;;3.86;100.00
38939;BME280;24211;49.980;19.776;2023-10-19T00:36:41;98752.09;;;3.82;100.00
38939;BME280;24211;49.980;19.776;2023-10-19T00:39:08;98747.63;;;3.83;100.00
38939;BME280;24211;49.980;19.776;2023-10-19T00:42:03;98749.22;;;3.77;100.00
38939;BME280;24211;49.980;19.776;2023-10-19T00:44:30;98750.22;;;3.76;100.00
38939;BME280;24211;49.980;19.776;2023-10-19T00:47:06;98751.41;;;3.74;100.00
38939;BME280;24211;49.980;19.776;2023-10-19T00:49:40;98739.03;;;3.74;100.00
38939;BME280;24211;49.980;19.776;2023-10-19T00:52:11;98739.03;;;3.74;100.00
38939;BME280;24211;49.980;19.776;2023-10-19T00:54:41;98728.84;;;3.71;100.00
38939;BME280;24211;49.980;19.776;2023-10-19T00:57:19;98734.53;;;3.68;100.00
38939;BME280;24211;49.980;19.776;2023-10-19T00:59:47;98732.06;;;3.67;100.00
38939;BME280;24211;49.980;19.776;2023-10-19T01:02:16;98719.44;;;3.62;100.00
38939;BME280;24211;49.980;19.776;2023-10-19T01:05:02;98723.09;;;3.61;100.00
38939;BME280;24211;49.980;19.776;2023-10-19T01:07:34;98719.66;;;3.61;100.00
38939;BME280;24211;49.980;19.776;2023-10-19T01:10:08;98711.28;;;3.57;100.00
38939;BME280;24211;49.980;19.776;2023-10-19T01:12:36;98708.84;;;3.56;100.00
38939;BME280;24211;49.980;19.776;2023-10-19T01:15:13;98696.84;;;3.53;100.00
38939;BME280;24211;49.980;19.776;2023-10-19T01:17:44;98688.69;;;3.48;100.00
38939;BME280;24211;49.980;19.776;2023-10-19T01:20:16;98696.63;;;3.48;100.00
38939;BME280;24211;49.980;19.776;2023-10-19T01:23:09;98692.72;;;3.44;100.00
38939;BME280;24211;49.980;19.776;2023-10-19T01:28:10;98677.28;;;3.41;100.00
38939;BME280;24211;49.980;19.776;2023-10-19T01:30:37;98676.63;;;3.39;100.00
38939;BME280;24211;49.980;19.776;2023-10-19T01:33:06;98677.03;;;3.36;100.00
38939;BME280;24211;49.980;19.776;2023-10-19T01:35:45;98672.16;;;3.33;100.00
38939;BME280;24211;49.980;19.776;2023-10-19T01:38:32;98668.03;;;3.24;100.00
38939;BME280;24211;49.980;19.776;2023-10-19T01:41:00;98662.75;;;3.24;100.00
38939;BME280;24211;49.980;19.776;2023-10-19T01:43:28;98663.13;;;3.21;100.00
38939;BME280;24211;49.980;19.776;2023-10-19T01:46:00;98655.59;;;3.18;100.00
38939;BME280;24211;49.980;19.776;2023-10-19T01:48:32;98656.41;;;3.18;100.00
38939;BME280;24211;49.980;19.776;2023-10-19T01:51:05;98654.16;;;3.15;100.00
38939;BME280;24211;49.980;19.776;2023-10-19T01:53:33;98646.63;;;3.12;100.00
38939;BME280;24211;49.980;19.776;2023-10-19T01:56:03;98641.91;;;3.08;100.00
38939;BME280;24211;49.980;19.776;2023-10-19T01:58:33;98639.09;;;3.09;100.00
38939;BME280;24211;49.980;19.776;2023-10-19T02:01:04;98631.81;;;3.11;100.00
38939;BME280;24211;49.980;19.776;2023-10-19T02:03:42;98633.81;;;3.09;100.00
38939;BME280;24211;49.980;19.776;2023-10-19T02:06:12;98628.97;;;3.13;100.00
38939;BME280;24211;49.980;19.776;2023-10-19T02:09:03;98631.81;;;3.11;100.00
38939;BME280;24211;49.980;19.776;2023-10-19T02:11:36;98625.25;;;3.07;100.00
38939;BME280;24211;49.980;19.776;2023-10-19T02:14:10;98618.53;;;3.05;100.00
38939;BME280;24211;49.980;19.776;2023-10-19T02:16:47;98614.28;;;3.04;100.00
38939;BME280;24211;49.980;19.776;2023-10-19T02:19:20;98608.41;;;3.02;100.00
38939;BME280;24211;49.980;19.776;2023-10-19T02:21:57;98601.25;;;3.02;100.00
38939;BME280;24211;49.980;19.776;2023-10-19T02:31:50;98614.19;;;2.91;100.00
38939;BME280;24211;49.980;19.776;2023-10-19T02:34:18;98604.84;;;2.88;100.00
38939;BME280;24211;49.980;19.776;2023-10-19T02:36:46;98596.75;;;2.90;100.00
38939;BME280;24211;49.980;19.776;2023-10-19T02:39:15;98584.94;;;2.86;100.00
38939;BME280;24211;49.980;19.776;2023-10-19T02:41:48;98578.03;;;2.85;100.00
38939;BME280;24211;49.980;19.776;2023-10-19T02:44:18;98578.41;;;2.82;100.00
38939;BME280;24211;49.980;19.776;2023-10-19T02:46:53;98575.16;;;2.80;100.00
38939;BME280;24211;49.980;19.776;2023-10-19T02:49:28;98580.81;;;2.77;100.00
38939;BME280;24211;49.980;19.776;2023-10-19T02:51:58;98587.09;;;2.76;100.00
38939;BME280;24211;49.980;19.776;2023-10-19T02:54:31;98577.56;;;2.75;100.00
38939;BME280;24211;49.980;19.776;2023-10-19T02:57:03;98575.91;;;2.74;100.00
38939;BME280;24211;49.980;19.776;2023-10-19T02:59:35;98559.03;;;2.68;100.00
38939;BME280;24211;49.980;19.776;2023-10-19T03:02:03;98556.81;;;2.65;100.00
38939;BME280;24211;49.980;19.776;2023-10-19T03:04:40;98553.59;;;2.70;100.00
38939;BME280;24211;49.980;19.776;2023-10-19T03:07:09;98546.66;;;2.69;100.00
38939;BME280;24211;49.980;19.776;2023-10-19T03:09:39;98553.97;;;2.67;100.00
38939;BME280;24211;49.980;19.776;2023-10-19T03:12:06;98547.03;;;2.65;100.00
38939;BME280;24211;49.980;19.776;2023-10-19T03:14:38;98541.75;;;2.65;100.00
38939;BME280;24211;49.980;19.776;2023-10-19T03:17:05;98539.78;;;2.68;100.00
38939;BME280;24211;49.980;19.776;2023-10-19T03:19:35;98531.22;;;2.65;100.00
38939;BME280;24211;49.980;19.776;2023-10-19T03:22:03;98526.75;;;2.66;100.00
38939;BME280;24211;49.980;19.776;2023-10-19T03:24:33;98521.09;;;2.69;100.00
38939;BME280;24211;49.980;19.776;2023-10-19T03:27:06;98523.31;;;2.65;100.00
38939;BME280;24211;49.980;19.776;2023-10-19T03:29:42;98517.22;;;2.65;100.00
38939;BME280;24211;49.980;19.776;2023-10-19T03:32:14;98510.09;;;2.65;100.00
38939;BME280;24211;49.980;19.776;2023-10-19T03:34:44;98500.16;;;2.61;100.00
38939;BME280;24211;49.980;19.776;2023-10-19T03:37:15;98484.75;;;2.64;100.00
38939;BME280;24211;49.980;19.776;2023-10-19T03:39:44;98475.19;;;2.63;100.00
38939;BME280;24211;49.980;19.776;2023-10-19T03:42:13;98470.31;;;2.60;100.00
38939;BME280;24211;49.980;19.776;2023-10-19T03:44:41;98469.09;;;2.56;100.00
38939;BME280;24211;49.980;19.776;2023-10-19T03:47:16;98464.59;;;2.50;100.00
38939;BME280;24211;49.980;19.776;2023-10-19T03:49:49;98457.91;;;2.54;100.00
38939;BME280;24211;49.980;19.776;2023-10-19T03:52:18;98451.66;;;2.62;100.00
38939;BME280;24211;49.980;19.776;2023-10-19T03:54:46;98460.59;;;2.61;100.00
38939;BME280;24211;49.980;19.776;2023-10-19T03:57:16;98450.47;;;2.64;100.00
38939;BME280;24211;49.980;19.776;2023-10-19T03:59:47;98453.72;;;2.67;100.00
38939;BME280;24211;49.980;19.776;2023-10-19T04:02:20;98453.34;;;2.70;100.00
38939;BME280;24211;49.980;19.776;2023-10-19T04:04:57;98457.59;;;2.71;100.00
38939;BME280;24211;49.980;19.776;2023-10-19T04:07:25;98443.59;;;2.70;100.00
38939;BME280;24211;49.980;19.776;2023-10-19T04:09:55;98441.16;;;2.69;100.00
38939;BME280;24211;49.980;19.776;2023-10-19T04:12:39;98431.78;;;2.66;100.00
38939;BME280;24211;49.980;19.776;2023-10-19T04:15:10;98442.78;;;2.70;100.00
38939;BME280;24211;49.980;19.776;2023-10-19T04:17:44;98450.53;;;2.78;100.00
38939;BME280;24211;49.980;19.776;2023-10-19T04:20:17;98443.25;;;2.80;100.00
38939;BME280;24211;49.980;19.776;2023-10-19T04:22:46;98447.72;;;2.86;100.00
38939;BME280;24211;49.980;19.776;2023-10-19T04:25:15;98432.69;;;2.86;100.00
38939;BME280;24211;49.980;19.776;2023-10-19T04:27:43;98426.44;;;2.87;100.00
38939;BME280;24211;49.980;19.776;2023-10-19T04:30:15;98427.88;;;2.90;100.00
38939;BME280;24211;49.980;19.776;2023-10-19T04:32:50;98425.84;;;2.92;100.00
38939;BME280;24211;49.980;19.776;2023-10-19T04:35:19;98418.91;;;2.91;100.00
38939;BME280;24211;49.980;19.776;2023-10-19T04:37:53;98421.16;;;2.94;100.00
38939;BME280;24211;49.980;19.776;2023-10-19T04:40:22;98410.41;;;2.95;100.00
38939;BME280;24211;49.980;19.776;2023-10-19T04:42:52;98401.69;;;2.95;100.00
38939;BME280;24211;49.980;19.776;2023-10-19T04:45:19;98401.28;;;2.98;100.00
38939;BME280;24211;49.980;19.776;2023-10-19T04:47:51;98398.63;;;2.98;100.00
38939;BME280;24211;49.980;19.776;2023-10-19T04:50:21;98392.97;;;3.01;100.00
38939;BME280;24211;49.980;19.776;2023-10-19T04:52:48;98399.88;;;3.02;100.00
38939;BME280;24211;49.980;19.776;2023-10-19T04:55:16;98388.28;;;3.03;100.00
38939;BME280;24211;49.980;19.776;2023-10-19T04:57:43;98403.13;;;3.04;100.00
38939;BME280;24211;49.980;19.776;2023-10-19T05:00:12;98396.63;;;3.06;100.00
38939;BME280;24211;49.980;19.776;2023-10-19T05:02:42;98395.00;;;3.05;100.00
38939;BME280;24211;49.980;19.776;2023-10-19T05:05:10;98392.19;;;3.07;100.00
38939;BME280;24211;49.980;19.776;2023-10-19T05:07:37;98390.97;;;3.09;100.00
38939;BME280;24211;49.980;19.776;2023-10-19T05:10:06;98395.03;;;3.12;100.00
38939;BME280;24211;49.980;19.776;2023-10-19T05:12:33;98381.19;;;3.10;100.00
38939;BME280;24211;49.980;19.776;2023-10-19T05:15:00;98375.91;;;3.10;100.00
38939;BME280;24211;49.980;19.776;2023-10-19T05:17:28;98371.28;;;3.12;100.00
38939;BME280;24211;49.980;19.776;2023-10-19T05:19:55;98375.91;;;3.10;100.00
38939;BME280;24211;49.980;19.776;2023-10-19T05:22:24;98367.41;;;3.08;100.00
38939;BME280;24211;49.980;19.776;2023-10-19T05:24:52;98386.09;;;3.06;100.00
38939;BME280;24211;49.980;19.776;2023-10-19T05:27:19;98390.16;;;3.09;100.00
38939;BME280;24211;49.980;19.776;2023-10-19T05:29:47;98388.34;;;3.16;100.00
38939;BME280;24211;49.980;19.776;2023-10-19T05:32:14;98384.88;;;3.15;100.00
38939;BME280;24211;49.980;19.776;2023-10-19T05:34:42;98382.06;;;3.17;100.00
38939;BME280;24211;49.980;19.776;2023-10-19T05:37:09;98385.69;;;3.16;100.00
38939;BME280;24211;49.980;19.776;2023-10-19T05:39:37;98374.94;;;3.17;100.00
38939;BME280;24211;49.980;19.776;2023-10-19T05:42:04;98375.13;;;3.16;100.00
38939;BME280;24211;49.980;19.776;2023-10-19T05:44:32;98377.56;;;3.17;100.00
38939;BME280;24211;49.980;19.776;2023-10-19T05:47:00;98364.97;;;3.13;100.00
38939;BME280;24211;49.980;19.776;2023-10-19T05:49:28;98363.38;;;3.12;100.00
38939;BME280;24211;49.980;19.776;2023-10-19T05:51:58;98362.16;;;3.14;100.00
38939;BME280;24211;49.980;19.776;2023-10-19T05:54:26;98353.19;;;3.22;100.00
38939;BME280;24211;49.980;19.776;2023-10-19T05:56:54;98355.88;;;3.28;100.00
38939;BME280;24211;49.980;19.776;2023-10-19T05:59:21;98354.25;;;3.34;100.00
38939;BME280;24211;49.980;19.776;2023-10-19T06:01:51;98349.97;;;3.40;100.00
38939;BME280;24211;49.980;19.776;2023-10-19T06:04:18;98346.13;;;3.42;100.00
38939;BME280;24211;49.980;19.776;2023-10-19T06:06:48;98347.97;;;3.48;100.00
38939;BME280;24211;49.980;19.776;2023-10-19T06:09:16;98346.53;;;3.52;100.00
38939;BME280;24211;49.980;19.776;2023-10-19T06:11:45;98347.94;;;3.61;100.00
38939;BME280;24211;49.980;19.776;2023-10-19T06:14:13;98340.84;;;3.68;100.00
38939;BME280;24211;49.980;19.776;2023-10-19T06:16:40;98327.63;;;3.75;100.00
38939;BME280;24211;49.980;19.776;2023-10-19T06:19:08;98331.88;;;3.82;100.00
38939;BME280;24211;49.980;19.776;2023-10-19T06:21:36;98320.06;;;3.91;100.00
38939;BME280;24211;49.980;19.776;2023-10-19T06:24:04;98311.31;;;3.97;100.00
38939;BME280;24211;49.980;19.776;2023-10-19T06:26:31;98306.41;;;4.08;100.00
38939;BME280;24211;49.980;19.776;2023-10-19T06:28:59;98320.63;;;4.20;100.00
38939;BME280;24211;49.980;19.776;2023-10-19T06:31:27;98316.91;;;4.34;100.00
38939;BME280;24211;49.980;19.776;2023-10-19T06:33:56;98311.56;;;4.47;100.00
38939;BME280;24211;49.980;19.776;2023-10-19T06:36:25;98305.81;;;4.56;100.00
38939;BME280;24211;49.980;19.776;2023-10-19T06:38:52;98319.00;;;4.63;100.00
38939;BME280;24211;49.980;19.776;2023-10-19T06:41:21;98306.97;;;4.67;100.00
38939;BME280;24211;49.980;19.776;2023-10-19T06:43:49;98317.50;;;4.80;100.00
38939;BME280;24211;49.980;19.776;2023-10-19T06:46:17;98303.59;;;4.91;100.00
38939;BME280;24211;49.980;19.776;2023-10-19T06:48:44;98292.09;;;5.04;100.00
38939;BME280;24211;49.980;19.776;2023-10-19T06:51:12;98291.19;;;5.16;100.00
38939;BME280;24211;49.980;19.776;2023-10-19T06:53:39;98282.75;;;5.26;100.00
38939;BME280;24211;49.980;19.776;2023-10-19T06:56:06;98274.06;;;5.44;100.00
38939;BME280;24211;49.980;19.776;2023-10-19T06:58:34;98276.38;;;5.58;100.00
38939;BME280;24211;49.980;19.776;2023-10-19T07:01:07;98276.94;;;5.67;100.00
38939;BME280;24211;49.980;19.776;2023-10-19T07:03:36;98267.66;;;5.76;100.00
38939;BME280;24211;49.980;19.776;2023-10-19T07:06:04;98275.66;;;5.94;100.00
38939;BME280;24211;49.980;19.776;2023-10-19T07:08:41;98271.97;;;6.13;100.00
38939;BME280;24211;49.980;19.776;2023-10-19T07:11:09;98261.22;;;6.26;100.00
38939;BME280;24211;49.980;19.776;2023-10-19T07:13:37;98255.72;;;6.39;100.00
38939;BME280;24211;49.980;19.776;2023-10-19T07:16:04;98256.44;;;6.46;100.00
38939;BME280;24211;49.980;19.776;2023-10-19T07:18:32;98243.03;;;6.41;100.00
38939;BME280;24211;49.980;19.776;2023-10-19T07:20:59;98241.72;;;6.50;100.00
38939;BME280;24211;49.980;19.776;2023-10-19T07:23:36;98225.69;;;6.57;100.00
38939;BME280;24211;49.980;19.776;2023-10-19T07:26:05;98228.50;;;6.74;100.00
38939;BME280;24211;49.980;19.776;2023-10-19T07:28:33;98226.81;;;6.79;100.00
38939;BME280;24211;49.980;19.776;2023-10-19T07:31:05;98226.03;;;6.90;100.00
38939;BME280;24211;49.980;19.776;2023-10-19T07:33:33;98216.81;;;6.93;100.00
38939;BME280;24211;49.980;19.776;2023-10-19T07:36:03;98211.53;;;7.28;100.00
38939;BME280;24211;49.980;19.776;2023-10-19T07:38:35;98200.78;;;7.57;100.00
38939;BME280;24211;49.980;19.776;2023-10-19T07:41:02;98192.22;;;7.78;100.00
38939;BME280;24211;49.980;19.776;2023-10-19T07:43:30;98202.22;;;8.00;100.00
38939;BME280;24211;49.980;19.776;2023-10-19T07:45:58;98197.81;;;8.05;100.00
38939;BME280;24211;49.980;19.776;2023-10-19T07:48:25;98193.91;;;8.36;100.00
38939;BME280;24211;49.980;19.776;2023-10-19T07:50:53;98204.41;;;8.54;100.00
38939;BME280;24211;49.980;19.776;2023-10-19T07:53:20;98198.16;;;8.93;100.00
38939;BME280;24211;49.980;19.776;2023-10-19T07:55:48;98200.38;;;8.68;100.00
38939;BME280;24211;49.980;19.776;2023-10-19T07:58:16;98194.50;;;8.66;100.00
38939;BME280;24211;49.980;19.776;2023-10-19T08:00:43;98178.34;;;8.73;100.00
38939;BME280;24211;49.980;19.776;2023-10-19T08:03:13;98176.75;;;8.72;100.00
38939;BME280;24211;49.980;19.776;2023-10-19T08:05:45;98181.44;;;8.81;100.00
38939;BME280;24211;49.980;19.776;2023-10-19T08:08:12;98178.41;;;8.89;100.00
38939;BME280;24211;49.980;19.776;2023-10-19T08:10:40;98171.13;;;9.01;100.00
38939;BME280;24211;49.980;19.776;2023-10-19T08:13:07;98172.72;;;9.02;100.00
38939;BME280;24211;49.980;19.776;2023-10-19T08:15:34;98167.47;;;9.41;100.00
38939;BME280;24211;49.980;19.776;2023-10-19T08:18:03;98152.25;;;9.79;100.00
38939;BME280;24211;49.980;19.776;2023-10-19T08:20:33;98142.88;;;9.77;100.00
38939;BME280;24211;49.980;19.776;2023-10-19T08:23:04;98134.44;;;10.28;100.00
38939;BME280;24211;49.980;19.776;2023-10-19T08:25:33;98127.31;;;10.12;100.00
38939;BME280;24211;49.980;19.776;2023-10-19T08:28:21;98129.41;;;9.67;100.00
38939;BME280;24211;49.980;19.776;2023-10-19T08:30:49;98126.09;;;10.03;100.00
38939;BME280;24211;49.980;19.776;2023-10-19T08:33:30;98129.28;;;10.00;100.00
38939;BME280;24211;49.980;19.776;2023-10-19T08:36:01;98126.19;;;9.86;100.00
38939;BME280;24211;49.980;19.776;2023-10-19T08:38:29;98129.47;;;9.72;100.00
38939;BME280;24211;49.980;19.776;2023-10-19T08:40:56;98126.06;;;9.76;100.00
38939;BME280;24211;49.980;19.776;2023-10-19T08:43:24;98126.31;;;9.75;100.00
38939;BME280;24211;49.980;19.776;2023-10-19T08:45:53;98116.25;;;9.82;100.00
38939;BME280;24211;49.980;19.776;2023-10-19T08:48:22;98106.25;;;9.94;100.00
38939;BME280;24211;49.980;19.776;2023-10-19T08:50:51;98118.53;;;9.95;100.00
38939;BME280;24211;49.980;19.776;2023-10-19T08:53:20;98108.94;;;9.94;100.00
38939;BME280;24211;49.980;19.776;2023-10-19T08:55:48;98099.38;;;9.98;100.00
38939;BME280;24211;49.980;19.776;2023-10-19T08:58:17;98093.97;;;9.93;100.00
38939;BME280;24211;49.980;19.776;2023-10-19T09:00:49;98093.25;;;10.03;100.00
38939;BME280;24211;49.980;19.776;2023-10-19T09:03:24;98077.06;;;10.09;100.00
38939;BME280;24211;49.980;19.776;2023-10-19T09:05:54;98082.56;;;10.19;100.00
38939;BME280;24211;49.980;19.776;2023-10-19T09:08:23;98085.72;;;10.16;100.00
38939;BME280;24211;49.980;19.776;2023-10-19T09:10:51;98084.63;;;10.17;100.00
38939;BME280;24211;49.980;19.776;2023-10-19T09:13:21;98081.75;;;10.19;100.00
38939;BME280;24211;49.980;19.776;2023-10-19T09:15:51;98078.53;;;10.17;100.00
38939;BME280;24211;49.980;19.776;2023-10-19T09:18:25;98081.44;;;10.15;100.00
38939;BME280;24211;49.980;19.776;2023-10-19T09:20:57;98083.06;;;10.16;100.00
38939;BME280;24211;49.980;19.776;2023-10-19T09:23:35;98077.72;;;10.16;100.00
38939;BME280;24211;49.980;19.776;2023-10-19T09:26:04;98075.31;;;10.20;100.00
38939;BME280;24211;49.980;19.776;2023-10-19T09:28:37;98077.16;;;10.14;100.00
38939;BME280;24211;49.980;19.776;2023-10-19T09:31:06;98080.88;;;10.13;100.00
38939;BME280;24211;49.980;19.776;2023-10-19T09:33:41;98075.59;;;10.18;100.00
38939;BME280;24211;49.980;19.776;2023-10-19T09:36:10;98078.25;;;10.18;100.00
38939;BME280;24211;49.980;19.776;2023-10-19T09:38:49;98073.97;;;10.17;100.00
38939;BME280;24211;49.980;19.776;2023-10-19T09:41:21;98062.19;;;10.13;100.00
38939;BME280;24211;49.980;19.776;2023-10-19T09:43:50;98055.22;;;10.12;100.00
38939;BME280;24211;49.980;19.776;2023-10-19T09:46:38;98060.63;;;10.17;100.00
38939;BME280;24211;49.980;19.776;2023-10-19T09:49:07;98055.91;;;10.24;100.00
38939;BME280;24211;49.980;19.776;2023-10-19T09:51:40;98044.66;;;10.22;100.00
38939;BME280;24211;49.980;19.776;2023-10-19T09:54:34;98055.91;;;10.24;100.00
38939;BME280;24211;49.980;19.776;2023-10-19T09:57:18;98050.50;;;10.19;100.00
38939;BME280;24211;49.980;19.776;2023-10-19T09:59:56;98049.78;;;10.02;100.00
38939;BME280;24211;49.980;19.776;2023-10-19T10:02:27;98043.53;;;9.92;100.00
38939;BME280;24211;49.980;19.776;2023-10-19T10:04:54;98052.88;;;9.94;100.00
38939;BME280;24211;49.980;19.776;2023-10-19T10:07:24;98048.66;;;9.98;100.00
38939;BME280;24211;49.980;19.776;2023-10-19T10:09:58;98054.00;;;9.98;100.00
38939;BME280;24211;49.980;19.776;2023-10-19T10:12:26;98038.41;;;9.85;100.00
38939;BME280;24211;49.980;19.776;2023-10-19T10:15:06;98027.66;;;9.80;100.00
38939;BME280;24211;49.980;19.776;2023-10-19T10:17:38;98017.03;;;9.85;100.00
38939;BME280;24211;49.980;19.776;2023-10-19T10:25:45;98011.78;;;9.95;100.00
38939;BME280;24211;49.980;19.776;2023-10-19T10:28:17;97997.78;;;9.83;100.00
38939;BME280;24211;49.980;19.776;2023-10-19T10:31:14;98002.63;;;9.86;100.00
38939;BME280;24211;49.980;19.776;2023-10-19T10:33:48;98003.81;;;10.00;100.00
38939;BME280;24211;49.980;19.776;2023-10-19T10:36:18;97991.66;;;10.09;100.00
38939;BME280;24211;49.980;19.776;2023-10-19T10:38:48;97995.19;;;10.15;100.00
38939;BME280;24211;49.980;19.776;2023-10-19T10:41:23;97992.50;;;10.15;100.00
38939;BME280;24211;49.980;19.776;2023-10-19T10:43:58;97986.44;;;10.19;100.00
38939;BME280;24211;49.980;19.776;2023-10-19T10:46:27;97982.69;;;10.20;100.00
38939;BME280;24211;49.980;19.776;2023-10-19T10:48:56;97973.69;;;10.26;100.00
38939;BME280;24211;49.980;19.776;2023-10-19T10:51:27;97974.72;;;10.25;100.00
38939;BME280;24211;49.980;19.776;2023-10-19T10:53:58;97958.72;;;10.25;100.00
38939;BME280;24211;49.980;19.776;2023-10-19T10:56:28;97956.06;;;10.30;100.00
38939;BME280;24211;49.980;19.776;2023-10-19T10:58:56;97955.00;;;10.26;100.00
38939;BME280;24211;49.980;19.776;2023-10-19T11:01:32;97950.66;;;10.20;100.00
38939;BME280;24211;49.980;19.776;2023-10-19T11:04:08;97948.53;;;10.22;100.00
38939;BME280;24211;49.980;19.776;2023-10-19T11:06:52;97939.97;;;10.20;100.00
38939;BME280;24211;49.980;19.776;2023-10-19T11:09:22;97934.94;;;10.24;100.00
38939;BME280;24211;49.980;19.776;2023-10-19T11:11:50;97927.75;;;10.24;100.00
38939;BME280;24211;49.980;19.776;2023-10-19T11:14:19;97928.28;;;10.26;100.00
38939;BME280;24211;49.980;19.776;2023-10-19T11:16:50;97925.06;;;10.24;100.00
38939;BME280;24211;49.980;19.776;2023-10-19T11:19:18;97918.63;;;10.20;100.00
38939;BME280;24211;49.980;19.776;2023-10-19T11:21:54;97897.25;;;10.20;100.00
38939;BME280;24211;49.980;19.776;2023-10-19T11:24:29;97899.38;;;10.18;100.00
38939;BME280;24211;49.980;19.776;2023-10-19T11:27:01;97895.38;;;10.16;100.00
38939;BME280;24211;49.980;19.776;2023-10-19T11:29:29;97897.25;;;10.20;100.00
38939;BME280;24211;49.980;19.776;2023-10-19T11:32:00;97885.44;;;10.11;100.00
38939;BME280;24211;49.980;19.776;2023-10-19T11:34:30;97889.47;;;10.14;100.00
38939;BME280;24211;49.980;19.776;2023-10-19T11:37:02;97885.50;;;10.16;100.00
38939;BME280;24211;49.980;19.776;2023-10-19T11:39:32;97882.31;;;10.19;100.00
38939;BME280;24211;49.980;19.776;2023-10-19T11:41:59;97880.75;;;10.23;100.00
38939;BME280;24211;49.980;19.776;2023-10-19T11:44:28;97879.09;;;10.17;100.00
38939;BME280;24211;49.980;19.776;2023-10-19T11:46:56;97876.47;;;10.27;100.00
38939;BME280;24211;49.980;19.776;2023-10-19T11:49:23;97868.00;;;10.35;100.00
38939;BME280;24211;49.980;19.776;2023-10-19T11:51:53;97862.38;;;10.32;100.00
38939;BME280;24211;49.980;19.776;2023-10-19T11:54:20;97859.94;;;10.30;100.00
38939;BME280;24211;49.980;19.776;2023-10-19T11:56:47;97853.31;;;10.38;100.00
38939;BME280;24211;49.980;19.776;2023-10-19T11:59:16;97852.81;;;10.41;100.00
38939;BME280;24211;49.980;19.776;2023-10-19T12:01:43;97843.00;;;10.52;100.00
38939;BME280;24211;49.980;19.776;2023-10-19T12:04:11;97840.81;;;10.43;100.00
38939;BME280;24211;49.980;19.776;2023-10-19T12:06:38;97834.38;;;10.44;100.00
38939;BME280;24211;49.980;19.776;2023-10-19T12:09:05;97828.03;;;10.50;100.00
38939;BME280;24211;49.980;19.776;2023-10-19T12:11:42;97823.50;;;10.56;100.00
38939;BME280;24211;49.980;19.776;2023-10-19T12:14:13;97820.53;;;10.52;100.00
38939;BME280;24211;49.980;19.776;2023-10-19T12:16:42;97815.22;;;10.52;100.00
38939;BME280;24211;49.980;19.776;2023-10-19T12:19:09;97817.59;;;10.54;100.00
38939;BME280;24211;49.980;19.776;2023-10-19T12:21:36;97811.47;;;10.54;100.00
38939;BME280;24211;49.980;19.776;2023-10-19T12:24:08;97812.81;;;10.51;100.00
38939;BME280;24211;49.980;19.776;2023-10-19T12:26:36;97804.03;;;10.61;100.00
38939;BME280;24211;49.980;19.776;2023-10-19T12:29:03;97812.03;;;10.56;100.00
38939;BME280;24211;49.980;19.776;2023-10-19T12:31:34;97807.16;;;10.47;100.00
38939;BME280;24211;49.980;19.776;2023-10-19T12:34:01;97809.88;;;10.52;100.00
38939;BME280;24211;49.980;19.776;2023-10-19T12:36:28;97799.72;;;10.55;100.00
38939;BME280;24211;49.980;19.776;2023-10-19T12:38:59;97809.88;;;10.58;100.00
38939;BME280;24211;49.980;19.776;2023-10-19T12:41:28;97818.72;;;10.63;100.00
38939;BME280;24211;49.980;19.776;2023-10-19T12:43:56;97816.31;;;10.62;100.00
38939;BME280;24211;49.980;19.776;2023-10-19T12:46:35;97814.75;;;10.66;100.00
38939;BME280;24211;49.980;19.776;2023-10-19T12:49:06;97811.78;;;10.67;100.00
38939;BME280;24211;49.980;19.776;2023-10-19T12:51:41;97814.72;;;10.61;100.00
38939;BME280;24211;49.980;19.776;2023-10-19T12:54:11;97812.03;;;10.61;100.00
38939;BME280;24211;49.980;19.776;2023-10-19T12:56:40;97807.72;;;10.55;100.00
38939;BME280;24211;49.980;19.776;2023-10-19T12:59:07;97806.19;;;10.64;100.00
38939;BME280;24211;49.980;19.776;2023-10-19T13:01:35;97809.63;;;10.59;100.00
38939;BME280;24211;49.980;19.776;2023-10-19T13:04:03;97806.69;;;10.61;100.00
38939;BME280;24211;49.980;19.776;2023-10-19T13:06:44;97802.19;;;10.66;100.00
38939;BME280;24211;49.980;19.776;2023-10-19T13:09:14;97807.25;;;10.68;100.00
38939;BME280;24211;49.980;19.776;2023-10-19T13:11:43;97799.22;;;10.63;100.00
38939;BME280;24211;49.980;19.776;2023-10-19T13:14:11;97800.28;;;10.67;100.00
38939;BME280;24211;49.980;19.776;2023-10-19T13:16:39;97793.38;;;10.71;100.00
38939;BME280;24211;49.980;19.776;2023-10-19T13:19:06;97796.88;;;10.71;100.00
38939;BME280;24211;49.980;19.776;2023-10-19T13:21:41;97802.22;;;10.71;100.00